sensor_id;sensor_type;location;lat;lon;timestamp;P1;durP1;ratioP1;P2;durP2;ratioP2
45760;SDS011;31471;51.040;14.414;2022-07-21T00:00:22;7.03;;;4.38;;
45760;SDS011;31471;51.040;14.414;2022-07-21T00:02:49;5.32;;;4.55;;
45760;SDS011;31471;51.040;14.414;2022-07-21T00:05:15;7.18;;;4.45;;
45760;SDS011;31471;51.040;14.414;2022-07-21T00:07:41;5.70;;;4.03;;
45760;SDS011;31471;51.040;14.414;2022-07-21T00:10:06;5.90;;;4.38;;
45760;SDS011;31471;51.040;14.414;2022-07-21T00:12:33;6.88;;;4.28;;
45760;SDS011;31471;51.040;14.414;2022-07-21T00:14:59;4.38;;;3.88;;
45760;SDS011;31471;51.040;14.414;2022-07-21T00:17:25;7.13;;;3.80;;
45760;SDS011;31471;51.040;14.414;2022-07-21T00:19:50;5.10;;;3.92;;
45760;SDS011;31471;51.040;14.414;2022-07-21T00:22:16;5.78;;;4.93;;
45760;SDS011;31471;51.040;14.414;2022-07-21T00:27:07;7.65;;;4.20;;
45760;SDS011;31471;51.040;14.414;2022-07-21T00:31:58;5.72;;;3.85;;
45760;SDS011;31471;51.040;14.414;2022-07-21T00:34:25;4.53;;;3.95;;
45760;SDS011;31471;51.040;14.414;2022-07-21T00:36:51;5.28;;;4.28;;
45760;SDS011;31471;51.040;14.414;2022-07-21T00:39:16;5.25;;;4.10;;
45760;SDS011;31471;51.040;14.414;2022-07-21T00:41:42;5.05;;;4.28;;
45760;SDS011;31471;51.040;14.414;2022-07-21T00:46:44;5.38;;;4.30;;
45760;SDS011;31471;51.040;14.414;2022-07-21T00:49:10;4.43;;;3.80;;
45760;SDS011;31471;51.040;14.414;2022-07-21T00:51:35;5.00;;;3.97;;
45760;SDS011;31471;51.040;14.414;2022-07-21T00:54:01;6.80;;;4.65;;
45760;SDS011;31471;51.040;14.414;2022-07-21T00:58:52;6.35;;;4.55;;
45760;SDS011;31471;51.040;14.414;2022-07-21T01:03:43;5.80;;;3.97;;
45760;SDS011;31471;51.040;14.414;2022-07-21T01:06:08;4.57;;;3.47;;
45760;SDS011;31471;51.040;14.414;2022-07-21T01:08:34;5.90;;;4.28;;
45760;SDS011;31471;51.040;14.414;2022-07-21T01:13:25;4.57;;;3.85;;
45760;SDS011;31471;51.040;14.414;2022-07-21T01:15:51;5.88;;;3.88;;
45760;SDS011;31471;51.040;14.414;2022-07-21T01:18:16;6.75;;;4.10;;
45760;SDS011;31471;51.040;14.414;2022-07-21T01:23:10;5.63;;;4.20;;
45760;SDS011;31471;51.040;14.414;2022-07-21T01:25:36;7.18;;;4.40;;
45760;SDS011;31471;51.040;14.414;2022-07-21T01:28:01;5.85;;;4.05;;
45760;SDS011;31471;51.040;14.414;2022-07-21T01:30:27;5.38;;;4.13;;
45760;SDS011;31471;51.040;14.414;2022-07-21T01:32:53;5.53;;;3.92;;
45760;SDS011;31471;51.040;14.414;2022-07-21T01:35:18;4.60;;;4.03;;
45760;SDS011;31471;51.040;14.414;2022-07-21T01:37:45;7.85;;;4.38;;
45760;SDS011;31471;51.040;14.414;2022-07-21T01:40:12;6.05;;;3.83;;
45760;SDS011;31471;51.040;14.414;2022-07-21T01:42:58;6.63;;;4.35;;
45760;SDS011;31471;51.040;14.414;2022-07-21T01:45:24;4.95;;;3.97;;
45760;SDS011;31471;51.040;14.414;2022-07-21T01:47:50;5.28;;;4.10;;
45760;SDS011;31471;51.040;14.414;2022-07-21T01:50:15;4.93;;;4.20;;
45760;SDS011;31471;51.040;14.414;2022-07-21T01:52:43;5.20;;;4.00;;
45760;SDS011;31471;51.040;14.414;2022-07-21T01:55:09;5.65;;;3.78;;
45760;SDS011;31471;51.040;14.414;2022-07-21T01:57:35;5.35;;;4.13;;
45760;SDS011;31471;51.040;14.414;2022-07-21T02:00:00;4.50;;;4.03;;
45760;SDS011;31471;51.040;14.414;2022-07-21T02:02:31;5.07;;;4.10;;
45760;SDS011;31471;51.040;14.414;2022-07-21T02:04:57;6.32;;;4.00;;
45760;SDS011;31471;51.040;14.414;2022-07-21T02:07:22;6.55;;;4.30;;
45760;SDS011;31471;51.040;14.414;2022-07-21T02:09:48;5.78;;;3.78;;
45760;SDS011;31471;51.040;14.414;2022-07-21T02:12:14;5.70;;;3.78;;
45760;SDS011;31471;51.040;14.414;2022-07-21T02:14:39;8.18;;;4.47;;
45760;SDS011;31471;51.040;14.414;2022-07-21T02:17:05;6.82;;;4.25;;
45760;SDS011;31471;51.040;14.414;2022-07-21T02:19:30;5.30;;;4.35;;
45760;SDS011;31471;51.040;14.414;2022-07-21T02:21:56;7.28;;;4.63;;
45760;SDS011;31471;51.040;14.414;2022-07-21T02:24:21;6.93;;;4.75;;
45760;SDS011;31471;51.040;14.414;2022-07-21T02:26:47;7.40;;;4.82;;
45760;SDS011;31471;51.040;14.414;2022-07-21T02:29:12;4.72;;;3.92;;
45760;SDS011;31471;51.040;14.414;2022-07-21T02:31:38;5.50;;;3.63;;
45760;SDS011;31471;51.040;14.414;2022-07-21T02:34:03;5.57;;;3.58;;
45760;SDS011;31471;51.040;14.414;2022-07-21T02:36:31;3.70;;;3.20;;
45760;SDS011;31471;51.040;14.414;2022-07-21T02:38:57;4.63;;;3.58;;
45760;SDS011;31471;51.040;14.414;2022-07-21T02:41:22;3.30;;;2.92;;
45760;SDS011;31471;51.040;14.414;2022-07-21T02:43:48;4.03;;;3.42;;
45760;SDS011;31471;51.040;14.414;2022-07-21T02:46:13;5.68;;;3.33;;
45760;SDS011;31471;51.040;14.414;2022-07-21T02:48:39;3.60;;;3.30;;
45760;SDS011;31471;51.040;14.414;2022-07-21T02:51:04;3.47;;;3.17;;
45760;SDS011;31471;51.040;14.414;2022-07-21T02:53:30;4.28;;;3.35;;
45760;SDS011;31471;51.040;14.414;2022-07-21T02:55:55;5.13;;;3.45;;
45760;SDS011;31471;51.040;14.414;2022-07-21T02:58:22;7.05;;;3.85;;
45760;SDS011;31471;51.040;14.414;2022-07-21T03:00:54;3.65;;;3.35;;
45760;SDS011;31471;51.040;14.414;2022-07-21T03:03:21;6.70;;;3.25;;
45760;SDS011;31471;51.040;14.414;2022-07-21T03:05:48;5.28;;;3.63;;
45760;SDS011;31471;51.040;14.414;2022-07-21T03:08:14;3.30;;;2.90;;
45760;SDS011;31471;51.040;14.414;2022-07-21T03:10:40;5.22;;;3.08;;
45760;SDS011;31471;51.040;14.414;2022-07-21T03:15:32;4.55;;;3.35;;
45760;SDS011;31471;51.040;14.414;2022-07-21T03:17:57;3.75;;;3.17;;
45760;SDS011;31471;51.040;14.414;2022-07-21T03:20:27;4.32;;;3.00;;
45760;SDS011;31471;51.040;14.414;2022-07-21T03:22:54;4.18;;;3.28;;
45760;SDS011;31471;51.040;14.414;2022-07-21T03:25:19;4.28;;;3.88;;
45760;SDS011;31471;51.040;14.414;2022-07-21T03:30:12;8.52;;;3.33;;
45760;SDS011;31471;51.040;14.414;2022-07-21T03:32:38;3.22;;;2.92;;
45760;SDS011;31471;51.040;14.414;2022-07-21T03:35:04;6.22;;;3.80;;
45760;SDS011;31471;51.040;14.414;2022-07-21T03:37:31;4.63;;;3.53;;
45760;SDS011;31471;51.040;14.414;2022-07-21T03:39:57;3.80;;;3.28;;
45760;SDS011;31471;51.040;14.414;2022-07-21T03:42:23;4.00;;;3.30;;
45760;SDS011;31471;51.040;14.414;2022-07-21T03:44:49;5.25;;;3.00;;
45760;SDS011;31471;51.040;14.414;2022-07-21T03:49:40;7.00;;;2.90;;
45760;SDS011;31471;51.040;14.414;2022-07-21T03:54:31;8.20;;;3.30;;
45760;SDS011;31471;51.040;14.414;2022-07-21T03:56:56;5.28;;;3.30;;
45760;SDS011;31471;51.040;14.414;2022-07-21T03:59:22;9.98;;;3.67;;
45760;SDS011;31471;51.040;14.414;2022-07-21T04:01:47;6.22;;;4.97;;
45760;SDS011;31471;51.040;14.414;2022-07-21T04:04:13;6.43;;;4.13;;
45760;SDS011;31471;51.040;14.414;2022-07-21T04:09:04;4.80;;;3.65;;
45760;SDS011;31471;51.040;14.414;2022-07-21T04:13:56;8.10;;;3.88;;
45760;SDS011;31471;51.040;14.414;2022-07-21T04:18:48;4.78;;;3.42;;
45760;SDS011;31471;51.040;14.414;2022-07-21T04:21:13;6.68;;;4.18;;
45760;SDS011;31471;51.040;14.414;2022-07-21T04:23:39;5.88;;;4.07;;
45760;SDS011;31471;51.040;14.414;2022-07-21T04:26:05;5.43;;;4.07;;
45760;SDS011;31471;51.040;14.414;2022-07-21T04:28:30;7.55;;;4.90;;
45760;SDS011;31471;51.040;14.414;2022-07-21T04:33:21;4.93;;;3.70;;
45760;SDS011;31471;51.040;14.414;2022-07-21T04:38:12;6.80;;;4.38;;
45760;SDS011;31471;51.040;14.414;2022-07-21T04:40:39;5.57;;;3.55;;
45760;SDS011;31471;51.040;14.414;2022-07-21T04:43:05;5.78;;;4.05;;
45760;SDS011;31471;51.040;14.414;2022-07-21T04:45:30;5.70;;;3.97;;
45760;SDS011;31471;51.040;14.414;2022-07-21T04:47:56;10.05;;;4.68;;
45760;SDS011;31471;51.040;14.414;2022-07-21T04:50:22;7.25;;;4.80;;
45760;SDS011;31471;51.040;14.414;2022-07-21T04:52:50;4.75;;;4.30;;
45760;SDS011;31471;51.040;14.414;2022-07-21T04:55:16;6.25;;;4.50;;
45760;SDS011;31471;51.040;14.414;2022-07-21T04:57:43;4.43;;;4.03;;
45760;SDS011;31471;51.040;14.414;2022-07-21T05:00:11;5.25;;;4.03;;
45760;SDS011;31471;51.040;14.414;2022-07-21T05:02:41;5.15;;;4.03;;
45760;SDS011;31471;51.040;14.414;2022-07-21T05:05:07;7.90;;;4.60;;
45760;SDS011;31471;51.040;14.414;2022-07-21T05:07:33;7.32;;;5.05;;
45760;SDS011;31471;51.040;14.414;2022-07-21T05:09:58;6.45;;;4.57;;
45760;SDS011;31471;51.040;14.414;2022-07-21T05:12:24;5.68;;;5.15;;
45760;SDS011;31471;51.040;14.414;2022-07-21T05:14:50;6.25;;;5.03;;
45760;SDS011;31471;51.040;14.414;2022-07-21T05:17:16;6.28;;;4.70;;
45760;SDS011;31471;51.040;14.414;2022-07-21T05:19:42;5.72;;;4.38;;
45760;SDS011;31471;51.040;14.414;2022-07-21T05:22:10;5.72;;;4.25;;
45760;SDS011;31471;51.040;14.414;2022-07-21T05:24:36;6.63;;;4.80;;
45760;SDS011;31471;51.040;14.414;2022-07-21T05:29:27;7.15;;;4.85;;
45760;SDS011;31471;51.040;14.414;2022-07-21T05:31:52;9.20;;;5.55;;
45760;SDS011;31471;51.040;14.414;2022-07-21T05:36:43;9.05;;;6.45;;
45760;SDS011;31471;51.040;14.414;2022-07-21T05:41:34;9.00;;;6.75;;
45760;SDS011;31471;51.040;14.414;2022-07-21T05:44:00;8.70;;;6.20;;
45760;SDS011;31471;51.040;14.414;2022-07-21T05:48:53;15.85;;;7.95;;
45760;SDS011;31471;51.040;14.414;2022-07-21T05:51:19;9.20;;;7.20;;
45760;SDS011;31471;51.040;14.414;2022-07-21T05:56:10;10.48;;;7.20;;
45760;SDS011;31471;51.040;14.414;2022-07-21T06:01:02;10.65;;;7.10;;
45760;SDS011;31471;51.040;14.414;2022-07-21T06:03:37;11.68;;;7.15;;
45760;SDS011;31471;51.040;14.414;2022-07-21T06:06:04;11.57;;;7.18;;
45760;SDS011;31471;51.040;14.414;2022-07-21T06:10:56;7.65;;;6.70;;
45760;SDS011;31471;51.040;14.414;2022-07-21T06:15:48;8.95;;;6.93;;
45760;SDS011;31471;51.040;14.414;2022-07-21T06:20:40;11.73;;;6.88;;
45760;SDS011;31471;51.040;14.414;2022-07-21T06:25:31;10.18;;;7.10;;
45760;SDS011;31471;51.040;14.414;2022-07-21T06:30:22;12.40;;;7.65;;
45760;SDS011;31471;51.040;14.414;2022-07-21T06:35:13;10.50;;;7.57;;
45760;SDS011;31471;51.040;14.414;2022-07-21T06:40:08;8.52;;;6.43;;
45760;SDS011;31471;51.040;14.414;2022-07-21T06:42:34;14.90;;;7.85;;
45760;SDS011;31471;51.040;14.414;2022-07-21T06:47:25;10.45;;;6.72;;
45760;SDS011;31471;51.040;14.414;2022-07-21T06:49:51;10.45;;;7.53;;
45760;SDS011;31471;51.040;14.414;2022-07-21T06:54:42;9.18;;;7.07;;
45760;SDS011;31471;51.040;14.414;2022-07-21T06:57:08;12.18;;;7.32;;
45760;SDS011;31471;51.040;14.414;2022-07-21T06:59:33;11.10;;;7.30;;
45760;SDS011;31471;51.040;14.414;2022-07-21T07:04:24;9.55;;;8.52;;
45760;SDS011;31471;51.040;14.414;2022-07-21T07:09:18;11.95;;;7.53;;
45760;SDS011;31471;51.040;14.414;2022-07-21T07:14:11;12.43;;;7.10;;
45760;SDS011;31471;51.040;14.414;2022-07-21T07:16:38;13.02;;;6.75;;
45760;SDS011;31471;51.040;14.414;2022-07-21T07:19:04;9.82;;;7.30;;
45760;SDS011;31471;51.040;14.414;2022-07-21T07:21:30;8.43;;;7.53;;
45760;SDS011;31471;51.040;14.414;2022-07-21T07:23:56;11.90;;;7.18;;
45760;SDS011;31471;51.040;14.414;2022-07-21T07:26:21;10.10;;;7.75;;
45760;SDS011;31471;51.040;14.414;2022-07-21T07:28:47;10.27;;;7.63;;
45760;SDS011;31471;51.040;14.414;2022-07-21T07:31:12;11.57;;;7.95;;
45760;SDS011;31471;51.040;14.414;2022-07-21T07:33:38;10.48;;;7.90;;
45760;SDS011;31471;51.040;14.414;2022-07-21T07:36:03;10.40;;;7.75;;
45760;SDS011;31471;51.040;14.414;2022-07-21T07:38:29;9.00;;;7.18;;
45760;SDS011;31471;51.040;14.414;2022-07-21T07:40:54;10.90;;;7.53;;
45760;SDS011;31471;51.040;14.414;2022-07-21T07:43:20;11.43;;;7.38;;
45760;SDS011;31471;51.040;14.414;2022-07-21T07:45:46;12.18;;;7.60;;
45760;SDS011;31471;51.040;14.414;2022-07-21T07:48:11;12.95;;;7.85;;
45760;SDS011;31471;51.040;14.414;2022-07-21T07:50:37;10.50;;;7.03;;
45760;SDS011;31471;51.040;14.414;2022-07-21T07:53:03;12.45;;;6.55;;
45760;SDS011;31471;51.040;14.414;2022-07-21T07:55:28;11.27;;;7.03;;
45760;SDS011;31471;51.040;14.414;2022-07-21T07:57:54;10.10;;;7.05;;
45760;SDS011;31471;51.040;14.414;2022-07-21T08:00:19;9.35;;;7.40;;
45760;SDS011;31471;51.040;14.414;2022-07-21T08:02:45;9.30;;;6.55;;
45760;SDS011;31471;51.040;14.414;2022-07-21T08:05:10;7.45;;;6.75;;
45760;SDS011;31471;51.040;14.414;2022-07-21T08:07:37;12.43;;;7.63;;
45760;SDS011;31471;51.040;14.414;2022-07-21T08:10:07;9.98;;;6.43;;
45760;SDS011;31471;51.040;14.414;2022-07-21T08:12:35;8.32;;;6.38;;
45760;SDS011;31471;51.040;14.414;2022-07-21T08:15:01;9.90;;;6.93;;
45760;SDS011;31471;51.040;14.414;2022-07-21T08:17:27;8.93;;;6.82;;
45760;SDS011;31471;51.040;14.414;2022-07-21T08:19:53;9.18;;;6.82;;
45760;SDS011;31471;51.040;14.414;2022-07-21T08:22:18;7.75;;;6.93;;
45760;SDS011;31471;51.040;14.414;2022-07-21T08:24:44;8.38;;;6.75;;
45760;SDS011;31471;51.040;14.414;2022-07-21T08:27:09;7.45;;;5.85;;
45760;SDS011;31471;51.040;14.414;2022-07-21T08:29:35;8.93;;;5.97;;
45760;SDS011;31471;51.040;14.414;2022-07-21T08:32:01;10.50;;;5.90;;
45760;SDS011;31471;51.040;14.414;2022-07-21T08:34:26;7.65;;;6.70;;
45760;SDS011;31471;51.040;14.414;2022-07-21T08:36:52;8.85;;;6.28;;
45760;SDS011;31471;51.040;14.414;2022-07-21T08:39:18;8.85;;;6.22;;
45760;SDS011;31471;51.040;14.414;2022-07-21T08:41:44;7.03;;;6.22;;
45760;SDS011;31471;51.040;14.414;2022-07-21T08:44:10;6.43;;;5.47;;
45760;SDS011;31471;51.040;14.414;2022-07-21T08:46:36;7.13;;;6.10;;
45760;SDS011;31471;51.040;14.414;2022-07-21T08:49:05;10.43;;;5.88;;
45760;SDS011;31471;51.040;14.414;2022-07-21T08:51:33;6.10;;;5.50;;
45760;SDS011;31471;51.040;14.414;2022-07-21T08:54:00;9.55;;;6.45;;
45760;SDS011;31471;51.040;14.414;2022-07-21T08:56:26;9.80;;;7.47;;
45760;SDS011;31471;51.040;14.414;2022-07-21T08:58:52;6.70;;;5.75;;
45760;SDS011;31471;51.040;14.414;2022-07-21T09:01:18;9.07;;;5.80;;
45760;SDS011;31471;51.040;14.414;2022-07-21T09:03:43;8.73;;;6.15;;
45760;SDS011;31471;51.040;14.414;2022-07-21T09:06:10;6.47;;;5.88;;
45760;SDS011;31471;51.040;14.414;2022-07-21T09:08:39;9.30;;;6.50;;
45760;SDS011;31471;51.040;14.414;2022-07-21T09:11:16;7.85;;;6.38;;
45760;SDS011;31471;51.040;14.414;2022-07-21T09:13:43;10.55;;;7.05;;
45760;SDS011;31471;51.040;14.414;2022-07-21T09:16:10;6.95;;;6.20;;
45760;SDS011;31471;51.040;14.414;2022-07-21T09:18:49;7.15;;;6.45;;
45760;SDS011;31471;51.040;14.414;2022-07-21T09:21:16;10.98;;;7.05;;
45760;SDS011;31471;51.040;14.414;2022-07-21T09:23:43;6.95;;;6.28;;
45760;SDS011;31471;51.040;14.414;2022-07-21T09:26:09;11.70;;;6.15;;
45760;SDS011;31471;51.040;14.414;2022-07-21T09:28:34;6.97;;;5.88;;
45760;SDS011;31471;51.040;14.414;2022-07-21T09:31:02;8.48;;;6.07;;
45760;SDS011;31471;51.040;14.414;2022-07-21T09:36:03;7.35;;;6.45;;
45760;SDS011;31471;51.040;14.414;2022-07-21T09:38:35;8.13;;;6.38;;
45760;SDS011;31471;51.040;14.414;2022-07-21T09:41:11;7.80;;;6.18;;
45760;SDS011;31471;51.040;14.414;2022-07-21T09:43:42;7.15;;;6.20;;
45760;SDS011;31471;51.040;14.414;2022-07-21T09:46:11;13.07;;;8.15;;
45760;SDS011;31471;51.040;14.414;2022-07-21T09:48:40;10.13;;;6.65;;
45760;SDS011;31471;51.040;14.414;2022-07-21T09:58:57;6.88;;;6.18;;
45760;SDS011;31471;51.040;14.414;2022-07-21T10:01:25;7.68;;;6.30;;
45760;SDS011;31471;51.040;14.414;2022-07-21T10:03:51;7.45;;;6.38;;
45760;SDS011;31471;51.040;14.414;2022-07-21T10:06:18;8.02;;;6.70;;
45760;SDS011;31471;51.040;14.414;2022-07-21T10:08:46;8.60;;;6.28;;
45760;SDS011;31471;51.040;14.414;2022-07-21T10:11:12;8.35;;;5.95;;
45760;SDS011;31471;51.040;14.414;2022-07-21T10:13:38;7.63;;;6.18;;
45760;SDS011;31471;51.040;14.414;2022-07-21T10:16:05;9.07;;;6.38;;
45760;SDS011;31471;51.040;14.414;2022-07-21T10:18:35;6.93;;;6.07;;
45760;SDS011;31471;51.040;14.414;2022-07-21T10:21:08;7.88;;;5.82;;
45760;SDS011;31471;51.040;14.414;2022-07-21T10:23:52;10.20;;;6.38;;
45760;SDS011;31471;51.040;14.414;2022-07-21T10:26:19;6.88;;;6.18;;
45760;SDS011;31471;51.040;14.414;2022-07-21T10:28:45;7.00;;;6.30;;
45760;SDS011;31471;51.040;14.414;2022-07-21T10:31:21;9.30;;;6.25;;
45760;SDS011;31471;51.040;14.414;2022-07-21T10:33:58;8.23;;;6.32;;
45760;SDS011;31471;51.040;14.414;2022-07-21T10:49:45;6.63;;;6.03;;
45760;SDS011;31471;51.040;14.414;2022-07-21T10:55:22;7.63;;;5.95;;
45760;SDS011;31471;51.040;14.414;2022-07-21T11:03:34;6.45;;;5.65;;
45760;SDS011;31471;51.040;14.414;2022-07-21T11:08:38;10.48;;;5.97;;
45760;SDS011;31471;51.040;14.414;2022-07-21T11:11:14;7.10;;;6.40;;
45760;SDS011;31471;51.040;14.414;2022-07-21T11:24:58;6.55;;;5.95;;
45760;SDS011;31471;51.040;14.414;2022-07-21T11:27:28;7.47;;;5.15;;
45760;SDS011;31471;51.040;14.414;2022-07-21T11:29:56;5.82;;;5.22;;
45760;SDS011;31471;51.040;14.414;2022-07-21T11:32:23;9.48;;;5.53;;
45760;SDS011;31471;51.040;14.414;2022-07-21T11:34:50;6.75;;;5.50;;
45760;SDS011;31471;51.040;14.414;2022-07-21T11:37:28;8.65;;;5.32;;
45760;SDS011;31471;51.040;14.414;2022-07-21T11:40:03;7.85;;;5.18;;
45760;SDS011;31471;51.040;14.414;2022-07-21T11:42:39;7.07;;;5.28;;
45760;SDS011;31471;51.040;14.414;2022-07-21T11:45:09;6.82;;;6.13;;
45760;SDS011;31471;51.040;14.414;2022-07-21T11:47:35;6.43;;;5.78;;
45760;SDS011;31471;51.040;14.414;2022-07-21T11:50:03;5.93;;;5.43;;
45760;SDS011;31471;51.040;14.414;2022-07-21T11:52:33;7.05;;;5.10;;
45760;SDS011;31471;51.040;14.414;2022-07-21T11:55:00;6.10;;;4.78;;
45760;SDS011;31471;51.040;14.414;2022-07-21T11:57:27;5.35;;;4.85;;
45760;SDS011;31471;51.040;14.414;2022-07-21T11:59:54;6.13;;;5.53;;
45760;SDS011;31471;51.040;14.414;2022-07-21T12:02:21;6.40;;;5.53;;
45760;SDS011;31471;51.040;14.414;2022-07-21T12:04:50;5.57;;;5.05;;
45760;SDS011;31471;51.040;14.414;2022-07-21T12:07:30;9.60;;;5.32;;
45760;SDS011;31471;51.040;14.414;2022-07-21T12:10:11;7.15;;;5.47;;
45760;SDS011;31471;51.040;14.414;2022-07-21T12:12:42;7.60;;;5.20;;
45760;SDS011;31471;51.040;14.414;2022-07-21T12:15:14;6.13;;;5.40;;
45760;SDS011;31471;51.040;14.414;2022-07-21T12:17:51;9.80;;;6.10;;
45760;SDS011;31471;51.040;14.414;2022-07-21T12:20:32;6.57;;;5.10;;
45760;SDS011;31471;51.040;14.414;2022-07-21T12:23:01;7.50;;;5.50;;
45760;SDS011;31471;51.040;14.414;2022-07-21T12:25:42;6.28;;;5.68;;
45760;SDS011;31471;51.040;14.414;2022-07-21T12:28:07;10.93;;;8.10;;
45760;SDS011;31471;51.040;14.414;2022-07-21T12:30:35;57.72;;;33.30;;
45760;SDS011;31471;51.040;14.414;2022-07-21T12:33:14;64.70;;;33.22;;
45760;SDS011;31471;51.040;14.414;2022-07-21T12:35:42;12.85;;;8.13;;
45760;SDS011;31471;51.040;14.414;2022-07-21T12:38:22;13.52;;;7.45;;
45760;SDS011;31471;51.040;14.414;2022-07-21T12:41:00;8.65;;;6.75;;
45760;SDS011;31471;51.040;14.414;2022-07-21T12:43:25;6.35;;;5.47;;
45760;SDS011;31471;51.040;14.414;2022-07-21T12:45:52;6.95;;;5.82;;
45760;SDS011;31471;51.040;14.414;2022-07-21T12:48:21;10.07;;;7.20;;
45760;SDS011;31471;51.040;14.414;2022-07-21T12:50:59;12.18;;;8.95;;
45760;SDS011;31471;51.040;14.414;2022-07-21T12:53:28;7.40;;;5.93;;
45760;SDS011;31471;51.040;14.414;2022-07-21T12:55:55;8.32;;;5.15;;
45760;SDS011;31471;51.040;14.414;2022-07-21T12:58:20;7.85;;;5.60;;
45760;SDS011;31471;51.040;14.414;2022-07-21T13:00:46;6.50;;;5.57;;
45760;SDS011;31471;51.040;14.414;2022-07-21T13:03:12;6.95;;;5.65;;
45760;SDS011;31471;51.040;14.414;2022-07-21T13:05:38;7.13;;;5.35;;
45760;SDS011;31471;51.040;14.414;2022-07-21T13:08:03;7.90;;;5.43;;
45760;SDS011;31471;51.040;14.414;2022-07-21T13:10:29;6.50;;;5.22;;
45760;SDS011;31471;51.040;14.414;2022-07-21T13:12:55;7.45;;;5.10;;
45760;SDS011;31471;51.040;14.414;2022-07-21T13:15:21;6.82;;;5.28;;
45760;SDS011;31471;51.040;14.414;2022-07-21T13:17:46;5.97;;;4.90;;
45760;SDS011;31471;51.040;14.414;2022-07-21T13:20:12;5.95;;;4.80;;
45760;SDS011;31471;51.040;14.414;2022-07-21T13:22:38;5.70;;;5.07;;
45760;SDS011;31471;51.040;14.414;2022-07-21T13:25:05;5.57;;;4.88;;
45760;SDS011;31471;51.040;14.414;2022-07-21T13:27:32;6.15;;;5.53;;
45760;SDS011;31471;51.040;14.414;2022-07-21T13:29:58;8.98;;;6.28;;
45760;SDS011;31471;51.040;14.414;2022-07-21T13:32:24;6.20;;;5.22;;
45760;SDS011;31471;51.040;14.414;2022-07-21T13:34:50;6.68;;;6.03;;
45760;SDS011;31471;51.040;14.414;2022-07-21T13:37:15;7.05;;;5.30;;
45760;SDS011;31471;51.040;14.414;2022-07-21T13:39:41;5.60;;;4.78;;
45760;SDS011;31471;51.040;14.414;2022-07-21T13:42:07;5.88;;;5.15;;
45760;SDS011;31471;51.040;14.414;2022-07-21T13:44:33;8.90;;;5.53;;
45760;SDS011;31471;51.040;14.414;2022-07-21T13:46:59;9.30;;;5.68;;
45760;SDS011;31471;51.040;14.414;2022-07-21T13:49:25;13.45;;;6.43;;
45760;SDS011;31471;51.040;14.414;2022-07-21T13:51:50;8.27;;;6.43;;
45760;SDS011;31471;51.040;14.414;2022-07-21T13:54:16;9.57;;;6.15;;
45760;SDS011;31471;51.040;14.414;2022-07-21T13:56:41;7.50;;;5.72;;
45760;SDS011;31471;51.040;14.414;2022-07-21T13:59:07;11.00;;;6.20;;
45760;SDS011;31471;51.040;14.414;2022-07-21T14:01:33;8.20;;;5.18;;
45760;SDS011;31471;51.040;14.414;2022-07-21T14:03:58;20.02;;;12.25;;
45760;SDS011;31471;51.040;14.414;2022-07-21T14:06:24;12.15;;;7.72;;
45760;SDS011;31471;51.040;14.414;2022-07-21T14:08:49;12.10;;;7.88;;
45760;SDS011;31471;51.040;14.414;2022-07-21T14:11:15;13.27;;;6.93;;
45760;SDS011;31471;51.040;14.414;2022-07-21T14:13:41;34.28;;;13.85;;
45760;SDS011;31471;51.040;14.414;2022-07-21T14:16:08;38.50;;;15.27;;
45760;SDS011;31471;51.040;14.414;2022-07-21T14:18:33;22.60;;;10.32;;
45760;SDS011;31471;51.040;14.414;2022-07-21T14:20:59;36.78;;;16.20;;
45760;SDS011;31471;51.040;14.414;2022-07-21T14:23:25;57.38;;;24.02;;
45760;SDS011;31471;51.040;14.414;2022-07-21T14:25:51;83.40;;;28.60;;
45760;SDS011;31471;51.040;14.414;2022-07-21T14:28:18;78.82;;;24.10;;
45760;SDS011;31471;51.040;14.414;2022-07-21T14:30:44;40.15;;;14.45;;
45760;SDS011;31471;51.040;14.414;2022-07-21T14:33:10;18.13;;;8.80;;
45760;SDS011;31471;51.040;14.414;2022-07-21T14:35:36;37.60;;;16.35;;
45760;SDS011;31471;51.040;14.414;2022-07-21T14:38:02;43.50;;;17.65;;
45760;SDS011;31471;51.040;14.414;2022-07-21T14:40:28;46.20;;;17.40;;
45760;SDS011;31471;51.040;14.414;2022-07-21T14:42:53;9.88;;;5.80;;
45760;SDS011;31471;51.040;14.414;2022-07-21T14:45:20;18.80;;;11.52;;
45760;SDS011;31471;51.040;14.414;2022-07-21T14:47:47;23.67;;;13.98;;
45760;SDS011;31471;51.040;14.414;2022-07-21T14:50:13;5.85;;;5.15;;
45760;SDS011;31471;51.040;14.414;2022-07-21T14:52:40;8.13;;;4.35;;
45760;SDS011;31471;51.040;14.414;2022-07-21T14:55:06;8.65;;;6.82;;
45760;SDS011;31471;51.040;14.414;2022-07-21T14:57:33;6.43;;;4.85;;
45760;SDS011;31471;51.040;14.414;2022-07-21T14:59:59;5.03;;;3.75;;
45760;SDS011;31471;51.040;14.414;2022-07-21T15:02:24;9.65;;;6.38;;
45760;SDS011;31471;51.040;14.414;2022-07-21T15:04:50;7.22;;;5.07;;
45760;SDS011;31471;51.040;14.414;2022-07-21T15:07:16;5.47;;;4.50;;
45760;SDS011;31471;51.040;14.414;2022-07-21T15:09:42;12.85;;;10.43;;
45760;SDS011;31471;51.040;14.414;2022-07-21T15:12:08;8.18;;;5.43;;
45760;SDS011;31471;51.040;14.414;2022-07-21T15:14:35;9.30;;;8.25;;
45760;SDS011;31471;51.040;14.414;2022-07-21T15:17:01;6.75;;;5.97;;
45760;SDS011;31471;51.040;14.414;2022-07-21T15:19:28;5.13;;;4.30;;
45760;SDS011;31471;51.040;14.414;2022-07-21T15:21:53;6.07;;;4.80;;
45760;SDS011;31471;51.040;14.414;2022-07-21T15:24:19;10.38;;;7.43;;
45760;SDS011;31471;51.040;14.414;2022-07-21T15:26:44;4.72;;;4.22;;
45760;SDS011;31471;51.040;14.414;2022-07-21T15:29:10;19.27;;;8.10;;
45760;SDS011;31471;51.040;14.414;2022-07-21T15:31:36;50.63;;;26.52;;
45760;SDS011;31471;51.040;14.414;2022-07-21T15:34:02;11.73;;;7.55;;
45760;SDS011;31471;51.040;14.414;2022-07-21T15:36:28;41.70;;;25.08;;
45760;SDS011;31471;51.040;14.414;2022-07-21T15:38:55;14.00;;;7.90;;
45760;SDS011;31471;51.040;14.414;2022-07-21T15:41:22;12.25;;;6.97;;
45760;SDS011;31471;51.040;14.414;2022-07-21T15:43:48;24.27;;;12.32;;
45760;SDS011;31471;51.040;14.414;2022-07-21T15:46:13;18.77;;;10.52;;
45760;SDS011;31471;51.040;14.414;2022-07-21T15:48:39;18.95;;;10.90;;
45760;SDS011;31471;51.040;14.414;2022-07-21T15:51:05;9.65;;;6.93;;
45760;SDS011;31471;51.040;14.414;2022-07-21T15:53:30;11.77;;;8.07;;
45760;SDS011;31471;51.040;14.414;2022-07-21T15:55:56;11.85;;;6.72;;
45760;SDS011;31471;51.040;14.414;2022-07-21T15:58:22;9.95;;;7.53;;
45760;SDS011;31471;51.040;14.414;2022-07-21T16:00:48;9.05;;;6.57;;
45760;SDS011;31471;51.040;14.414;2022-07-21T16:03:13;7.63;;;6.10;;
45760;SDS011;31471;51.040;14.414;2022-07-21T16:05:39;6.78;;;6.00;;
45760;SDS011;31471;51.040;14.414;2022-07-21T16:08:04;8.23;;;5.95;;
45760;SDS011;31471;51.040;14.414;2022-07-21T16:10:30;6.10;;;5.32;;
45760;SDS011;31471;51.040;14.414;2022-07-21T16:12:56;6.35;;;5.47;;
45760;SDS011;31471;51.040;14.414;2022-07-21T16:15:23;8.50;;;5.60;;
45760;SDS011;31471;51.040;14.414;2022-07-21T16:17:49;7.38;;;6.32;;
45760;SDS011;31471;51.040;14.414;2022-07-21T16:20:16;6.47;;;5.68;;
45760;SDS011;31471;51.040;14.414;2022-07-21T16:22:44;7.75;;;6.07;;
45760;SDS011;31471;51.040;14.414;2022-07-21T16:25:11;7.05;;;6.35;;
45760;SDS011;31471;51.040;14.414;2022-07-21T16:27:37;6.90;;;5.97;;
45760;SDS011;31471;51.040;14.414;2022-07-21T16:30:03;8.38;;;6.40;;
45760;SDS011;31471;51.040;14.414;2022-07-21T16:32:30;8.48;;;6.70;;
45760;SDS011;31471;51.040;14.414;2022-07-21T16:34:55;7.63;;;6.50;;
45760;SDS011;31471;51.040;14.414;2022-07-21T16:37:21;7.65;;;6.70;;